createdAt,value
2018-11-12T00:00:39.683Z,9.70
2018-11-12T00:03:11.571Z,9.60
2018-11-12T00:05:42.653Z,9.60
2018-11-12T00:08:13.961Z,9.60
2018-11-12T00:10:45.443Z,9.60
2018-11-12T00:13:17.118Z,9.60
2018-11-12T00:15:48.432Z,9.50
2018-11-12T00:18:19.688Z,9.60
2018-11-12T00:20:50.901Z,9.50
2018-11-12T00:23:22.442Z,9.50
2018-11-12T00:25:53.867Z,9.40
2018-11-12T00:28:25.471Z,9.40
2018-11-12T00:30:56.686Z,9.40
2018-11-12T00:33:28.276Z,9.40
2018-11-12T00:35:59.612Z,9.40
2018-11-12T00:38:30.980Z,9.40
2018-11-12T00:41:02.488Z,9.40
2018-11-12T00:43:33.838Z,9.40
2018-11-12T00:46:05.301Z,9.30
2018-11-12T00:48:36.588Z,9.40
2018-11-12T00:51:07.908Z,9.40
2018-11-12T00:53:39.352Z,9.40
2018-11-12T00:56:10.895Z,9.40
2018-11-12T00:58:42.293Z,9.40
2018-11-12T01:01:13.670Z,9.30
2018-11-12T01:03:45.100Z,9.30
2018-11-12T01:06:16.111Z,9.40
2018-11-12T01:08:47.456Z,9.40
2018-11-12T01:11:18.684Z,9.40
2018-11-12T01:13:50.060Z,9.50
2018-11-12T01:16:21.315Z,9.50
2018-11-12T01:18:52.448Z,9.50
2018-11-12T01:21:23.888Z,9.40
2018-11-12T01:23:55.139Z,9.50
2018-11-12T01:26:26.749Z,9.50
2018-11-12T01:28:58.230Z,9.50
2018-11-12T01:31:29.310Z,9.40
2018-11-12T01:34:00.772Z,9.40
2018-11-12T01:36:32.153Z,9.40
2018-11-12T01:39:05.020Z,9.40
2018-11-12T01:41:36.416Z,9.40
2018-11-12T01:44:07.577Z,9.40
2018-11-12T01:46:39.161Z,9.40
2018-11-12T01:49:10.668Z,9.30
2018-11-12T01:51:41.944Z,9.30
2018-11-12T01:54:12.877Z,9.30
2018-11-12T01:56:44.287Z,9.20
2018-11-12T01:59:15.640Z,9.20
2018-11-12T02:01:47.110Z,9.30
2018-11-12T02:04:18.400Z,9.20
2018-11-12T02:06:49.589Z,9.20
2018-11-12T02:09:21.285Z,9.20
2018-11-12T02:11:52.675Z,9.20
2018-11-12T02:14:23.847Z,9.20
2018-11-12T02:16:55.052Z,9.10
2018-11-12T02:19:26.392Z,9.10
2018-11-12T02:21:57.558Z,9.10
2018-11-12T02:24:29.347Z,9.10
2018-11-12T02:27:00.645Z,9.10
2018-11-12T02:29:31.943Z,9.10
2018-11-12T02:32:03.093Z,9.10
2018-11-12T02:34:34.521Z,9.10
2018-11-12T02:37:06.060Z,9.10
2018-11-12T02:39:37.527Z,9.10
2018-11-12T02:42:08.757Z,9.10
2018-11-12T02:44:40.041Z,9.10
2018-11-12T02:47:11.198Z,9.10
2018-11-12T02:49:42.642Z,9.10
2018-11-12T02:52:13.812Z,9.10
2018-11-12T02:54:44.968Z,9.20
2018-11-12T02:57:16.267Z,9.10
2018-11-12T02:59:47.669Z,9.10
2018-11-12T03:02:18.900Z,9.10
2018-11-12T03:04:49.988Z,9.10
2018-11-12T03:07:21.531Z,9.00
2018-11-12T03:09:52.692Z,9.00
2018-11-12T03:12:24.233Z,9.00
2018-11-12T03:14:55.584Z,8.90
2018-11-12T03:17:27.020Z,8.90
2018-11-12T03:19:58.277Z,8.90
2018-11-12T03:22:29.467Z,8.90
2018-11-12T03:25:00.828Z,8.90
2018-11-12T03:27:32.295Z,9.00
2018-11-12T03:30:03.703Z,9.00
2018-11-12T03:32:34.849Z,9.00
2018-11-12T03:35:06.786Z,8.90
2018-11-12T03:37:38.075Z,8.90
2018-11-12T03:40:13.745Z,8.90
2018-11-12T03:42:45.466Z,8.90
2018-11-12T03:45:20.738Z,9.00
2018-11-12T03:47:51.885Z,8.90
2018-11-12T03:50:24.777Z,9.00
2018-11-12T03:52:56.132Z,8.90
2018-11-12T03:55:27.432Z,8.90
2018-11-12T03:57:58.396Z,9.00
2018-11-12T04:00:31.602Z,9.00
2018-11-12T04:03:02.789Z,8.90
2018-11-12T04:05:34.076Z,8.90
2018-11-12T04:08:05.196Z,9.00
2018-11-12T04:10:36.617Z,9.00
2018-11-12T04:13:07.951Z,8.90
2018-11-12T04:15:39.575Z,8.80
2018-11-12T04:18:11.029Z,8.80
2018-11-12T04:20:42.500Z,8.80
2018-11-12T04:23:13.736Z,8.80
2018-11-12T04:25:45.022Z,8.90
2018-11-12T04:28:16.335Z,8.90
2018-11-12T04:30:47.865Z,9.00
2018-11-12T04:33:18.936Z,8.90
2018-11-12T04:35:50.200Z,9.00
2018-11-12T04:38:21.725Z,9.00
2018-11-12T04:40:52.873Z,9.00
2018-11-12T04:43:24.069Z,9.10
2018-11-12T04:45:55.247Z,9.20
2018-11-12T04:48:26.688Z,9.10
2018-11-12T04:50:58.248Z,9.10
2018-11-12T04:53:29.707Z,9.10
2018-11-12T04:56:00.944Z,9.10
2018-11-12T04:58:32.104Z,9.10
2018-11-12T05:01:03.729Z,9.10
2018-11-12T05:03:35.183Z,9.10
2018-11-12T05:06:06.600Z,9.10
2018-11-12T05:08:37.993Z,9.10
2018-11-12T05:11:09.202Z,9.10
2018-11-12T05:13:40.630Z,9.10
2018-11-12T05:16:12.080Z,9.10
2018-11-12T05:18:43.475Z,9.10
2018-11-12T05:21:14.612Z,9.10
2018-11-12T05:23:45.917Z,9.10
2018-11-12T05:26:17.143Z,9.10
2018-11-12T05:28:48.472Z,9.10
2018-11-12T05:31:20.360Z,9.10
2018-11-12T05:33:51.723Z,9.10
2018-11-12T05:36:22.770Z,9.10
2018-11-12T05:38:54.293Z,9.10
2018-11-12T05:41:25.605Z,9.10
2018-11-12T05:43:57.176Z,9.10
2018-11-12T05:46:28.567Z,9.10
2018-11-12T05:48:59.896Z,9.10
2018-11-12T05:51:31.432Z,9.10
2018-11-12T05:54:03.047Z,9.10
2018-11-12T05:56:34.501Z,9.10
2018-11-12T05:59:05.966Z,9.20
2018-11-12T06:01:37.486Z,9.10
2018-11-12T06:04:08.787Z,9.20
2018-11-12T06:06:40.271Z,9.20
2018-11-12T06:09:12.477Z,9.10
2018-11-12T06:11:44.088Z,9.10
2018-11-12T06:14:15.423Z,9.00
2018-11-12T06:16:46.888Z,9.10
2018-11-12T06:19:18.220Z,9.10
2018-11-12T06:21:49.536Z,9.10
2018-11-12T06:24:21.152Z,9.10
2018-11-12T06:26:52.461Z,9.10
2018-11-12T06:29:23.997Z,9.10
2018-11-12T06:31:55.300Z,9.10
2018-11-12T06:34:26.900Z,9.10
2018-11-12T06:36:58.490Z,9.00
2018-11-12T06:39:29.617Z,8.90
2018-11-12T06:42:01.178Z,9.00
2018-11-12T06:44:32.344Z,8.90
2018-11-12T06:47:03.568Z,9.00
2018-11-12T06:49:34.732Z,9.00
2018-11-12T06:52:06.275Z,9.00
2018-11-12T06:54:37.765Z,9.00
2018-11-12T06:57:09.171Z,9.00
2018-11-12T06:59:40.530Z,9.00
2018-11-12T07:02:11.761Z,9.00
2018-11-12T07:04:43.281Z,8.90
2018-11-12T07:07:14.565Z,8.90
2018-11-12T07:09:46.105Z,9.00
2018-11-12T07:12:17.195Z,8.90
2018-11-12T07:14:48.513Z,8.90
2018-11-12T07:17:19.949Z,9.00
2018-11-12T07:19:51.690Z,9.00
2018-11-12T07:22:23.595Z,9.00
2018-11-12T07:24:55.291Z,9.10
2018-11-12T07:27:26.859Z,9.20
2018-11-12T07:29:58.544Z,9.20
2018-11-12T07:32:30.260Z,9.20
2018-11-12T07:35:01.643Z,9.20
2018-11-12T07:37:33.195Z,9.10
2018-11-12T07:40:04.572Z,9.10
2018-11-12T07:42:36.129Z,9.20
2018-11-12T07:45:09.609Z,9.20
2018-11-12T07:47:41.915Z,9.30
2018-11-12T07:50:15.120Z,9.20
2018-11-12T07:52:46.691Z,9.30
2018-11-12T07:55:20.894Z,9.30
2018-11-12T07:57:53.432Z,9.30
2018-11-12T08:00:28.086Z,9.40
2018-11-12T08:03:09.546Z,9.30
2018-11-12T08:05:41.645Z,9.30
2018-11-12T08:08:13.109Z,9.40
2018-11-12T08:10:44.649Z,9.40
2018-11-12T08:13:15.854Z,9.40
2018-11-12T08:15:47.215Z,9.40
2018-11-12T08:18:18.656Z,9.50
2018-11-12T08:20:49.757Z,9.50
2018-11-12T08:23:21.212Z,9.50
2018-11-12T08:25:52.594Z,9.50
2018-11-12T08:28:23.815Z,9.50
2018-11-12T08:30:55.042Z,9.60
2018-11-12T08:33:26.304Z,9.60
2018-11-12T08:35:57.952Z,9.70
2018-11-12T08:38:29.513Z,9.60
2018-11-12T08:41:00.737Z,9.70
2018-11-12T08:43:32.108Z,9.70
2018-11-12T08:46:03.199Z,9.80
2018-11-12T08:48:34.397Z,9.80
2018-11-12T08:51:05.860Z,9.80
2018-11-12T08:53:37.065Z,9.90
2018-11-12T08:56:08.323Z,10.00
2018-11-12T08:58:39.752Z,10.10
2018-11-12T09:01:11.219Z,10.10
2018-11-12T09:03:42.832Z,10.30
2018-11-12T09:06:13.937Z,10.50
2018-11-12T09:08:45.202Z,10.80
2018-11-12T09:11:16.392Z,11.20
2018-11-12T09:13:47.893Z,11.60
2018-11-12T09:16:20.397Z,12.20
2018-11-12T09:18:51.736Z,12.50
2018-11-12T09:21:23.036Z,12.40
2018-11-12T09:23:54.451Z,12.60
2018-11-12T09:26:25.921Z,12.90
2018-11-12T09:28:57.499Z,13.10
2018-11-12T09:31:29.183Z,13.20
2018-11-12T09:34:00.237Z,13.30
2018-11-12T09:36:31.730Z,13.60
2018-11-12T09:39:03.243Z,13.80
2018-11-12T09:41:34.366Z,14.20
2018-11-12T09:44:05.786Z,14.20
2018-11-12T09:46:37.416Z,14.40
2018-11-12T09:49:09.138Z,14.70
2018-11-12T09:51:40.673Z,14.70
2018-11-12T09:54:12.218Z,14.70
2018-11-12T09:56:43.740Z,14.50
2018-11-12T09:59:15.047Z,14.40
2018-11-12T10:01:46.935Z,13.90
2018-11-12T10:04:18.578Z,13.60
2018-11-12T10:06:50.927Z,13.10
2018-11-12T10:09:22.306Z,13.00
2018-11-12T10:11:53.775Z,13.00
2018-11-12T10:14:26.384Z,12.80
2018-11-12T10:16:57.925Z,12.80
2018-11-12T10:19:26.646Z,12.50
2018-11-12T10:21:58.078Z,12.50
2018-11-12T10:24:29.337Z,12.50
2018-11-12T10:27:00.953Z,12.60
2018-11-12T10:29:32.427Z,12.60
2018-11-12T10:32:03.775Z,12.60
2018-11-12T10:34:35.052Z,12.50
2018-11-12T10:37:06.390Z,12.50
2018-11-12T10:39:37.528Z,12.40
2018-11-12T10:42:09.139Z,12.40
2018-11-12T10:44:40.537Z,12.50
2018-11-12T10:47:11.867Z,12.40
2018-11-12T10:49:43.120Z,12.60
2018-11-12T10:52:14.361Z,12.80
2018-11-12T10:54:45.842Z,13.00
2018-11-12T10:57:17.073Z,13.00
2018-11-12T10:59:48.324Z,13.10
2018-11-12T11:02:24.550Z,13.10
2018-11-12T11:04:56.104Z,13.20
2018-11-12T11:07:27.368Z,13.40
2018-11-12T11:09:58.854Z,13.50
2018-11-12T11:12:30.234Z,13.60
2018-11-12T11:15:01.422Z,13.60
2018-11-12T11:17:32.719Z,13.70
2018-11-12T11:20:04.580Z,13.80
2018-11-12T11:22:35.966Z,13.90
2018-11-12T11:25:07.725Z,13.90
2018-11-12T11:27:39.269Z,14.00
2018-11-12T11:30:14.023Z,14.10
2018-11-12T11:32:45.495Z,14.10
2018-11-12T11:35:17.779Z,14.20
2018-11-12T11:37:49.246Z,14.20
2018-11-12T11:40:21.674Z,14.20
2018-11-12T11:42:53.112Z,14.40
2018-11-12T11:45:24.341Z,14.50
2018-11-12T11:47:55.977Z,14.70
2018-11-12T11:50:27.990Z,14.70
2018-11-12T11:52:59.499Z,14.80
2018-11-12T11:55:31.089Z,14.90
2018-11-12T11:58:02.408Z,14.90
2018-11-12T12:00:33.774Z,15.00
2018-11-12T12:03:05.547Z,15.00
2018-11-12T12:05:36.724Z,15.10
2018-11-12T12:08:08.172Z,15.00
2018-11-12T12:10:39.683Z,15.00
2018-11-12T12:13:11.021Z,15.00
2018-11-12T12:15:42.234Z,15.00
2018-11-12T12:18:13.749Z,15.00
2018-11-12T12:20:45.131Z,15.10
2018-11-12T12:23:16.600Z,15.10
2018-11-12T12:25:48.058Z,15.20
2018-11-12T12:28:19.704Z,15.20
2018-11-12T12:30:50.988Z,15.10
2018-11-12T12:33:23.332Z,15.10
2018-11-12T12:35:54.771Z,15.10
2018-11-12T12:38:26.095Z,15.10
2018-11-12T12:40:57.484Z,15.20
2018-11-12T12:43:28.820Z,15.10
2018-11-12T12:46:00.450Z,15.10
2018-11-12T12:48:31.655Z,15.10
2018-11-12T12:51:02.885Z,15.20
2018-11-12T12:53:34.427Z,15.20
2018-11-12T12:56:06.017Z,15.20
2018-11-12T12:58:37.547Z,15.20
2018-11-12T13:01:09.169Z,15.30
2018-11-12T13:03:40.648Z,15.30
2018-11-12T13:06:12.132Z,15.30
2018-11-12T13:08:43.517Z,15.40
2018-11-12T13:11:14.836Z,15.50
2018-11-12T13:13:46.402Z,15.50
2018-11-12T13:16:17.632Z,15.60
2018-11-12T13:18:48.988Z,15.70
2018-11-12T13:21:20.311Z,15.70
2018-11-12T13:23:51.816Z,15.70
2018-11-12T13:26:23.109Z,15.70
2018-11-12T13:28:54.569Z,15.80
2018-11-12T13:31:26.003Z,15.80
2018-11-12T13:33:57.345Z,15.80
2018-11-12T13:36:28.855Z,15.80
2018-11-12T13:39:00.081Z,15.90
2018-11-12T13:41:31.506Z,15.90
2018-11-12T13:44:02.904Z,15.90
2018-11-12T13:46:39.346Z,15.90
2018-11-12T13:49:10.789Z,15.90
2018-11-12T13:51:42.430Z,15.90
2018-11-12T13:54:13.799Z,15.90
2018-11-12T13:56:45.315Z,16.00
2018-11-12T13:59:16.698Z,16.10
2018-11-12T14:01:48.256Z,16.10
2018-11-12T14:04:19.866Z,16.20
2018-11-12T14:06:51.249Z,16.20
2018-11-12T14:09:22.655Z,16.20
2018-11-12T14:11:53.935Z,16.20
2018-11-12T14:14:25.041Z,16.20
2018-11-12T14:16:56.804Z,16.30
2018-11-12T14:19:35.014Z,16.30
2018-11-12T14:22:06.242Z,16.30
2018-11-12T14:25:43.233Z,16.20
2018-11-12T14:28:14.075Z,16.20
2018-11-12T14:30:44.920Z,16.10
2018-11-12T14:33:15.790Z,16.00
2018-11-12T14:35:46.672Z,16.00
2018-11-12T14:38:17.562Z,16.00
2018-11-12T14:46:56.925Z,15.80
2018-11-12T14:49:53.032Z,15.80
2018-11-12T15:05:29.699Z,15.70
2018-11-12T15:08:01.094Z,15.70
2018-11-12T15:10:32.005Z,15.70
2018-11-12T15:13:02.833Z,15.60
2018-11-12T15:15:33.727Z,15.60
2018-11-12T15:18:04.523Z,15.70
2018-11-12T15:20:35.373Z,15.70
2018-11-12T15:23:06.203Z,15.60
2018-11-12T15:25:37.031Z,15.60
2018-11-12T15:28:07.958Z,15.60
2018-11-12T15:30:38.744Z,15.50
2018-11-12T15:33:09.531Z,15.50
2018-11-12T15:35:40.353Z,15.50
2018-11-12T15:38:11.116Z,15.40
2018-11-12T15:40:41.939Z,15.30
2018-11-12T15:43:12.848Z,15.30
2018-11-12T15:45:43.808Z,15.30
2018-11-12T15:48:14.621Z,15.20
2018-11-12T15:50:45.478Z,15.10
2018-11-12T15:53:16.279Z,15.00
2018-11-12T15:55:47.522Z,15.00
2018-11-12T15:58:18.926Z,15.00
2018-11-12T16:00:50.164Z,14.90
2018-11-12T16:03:21.849Z,14.80
2018-11-12T16:05:53.351Z,14.80
2018-11-12T16:08:24.497Z,14.70
2018-11-12T16:10:55.655Z,14.70
2018-11-12T16:13:26.907Z,14.60
2018-11-12T16:15:58.255Z,14.50
2018-11-12T16:18:30.485Z,14.50
2018-11-12T16:21:01.575Z,14.50
2018-11-12T16:23:33.362Z,14.40
2018-11-12T16:26:05.479Z,14.40
2018-11-12T16:28:39.677Z,14.30
2018-11-12T16:31:15.946Z,14.30
2018-11-12T16:33:48.689Z,14.30
2018-11-12T16:36:21.400Z,14.20
2018-11-12T16:38:53.856Z,14.20
2018-11-12T16:41:27.047Z,14.20
2018-11-12T16:44:00.947Z,14.10
2018-11-12T16:53:46.330Z,13.90
2018-11-12T16:56:25.175Z,13.90
2018-11-12T16:58:56.541Z,13.80
2018-11-12T17:01:28.778Z,13.80
2018-11-12T17:09:33.854Z,13.70
2018-11-12T17:13:23.849Z,13.70
2018-11-12T17:15:57.385Z,13.60
2018-11-12T17:18:37.112Z,13.50
2018-11-12T17:23:55.960Z,13.60
2018-11-12T17:29:44.823Z,13.60
2018-11-12T17:33:43.805Z,13.60
2018-11-12T18:01:11.560Z,13.60
2018-11-12T18:03:55.270Z,13.40
2018-11-12T18:10:49.526Z,13.30
2018-11-12T18:13:38.584Z,13.20
2018-11-12T18:19:28.012Z,13.20
2018-11-12T18:25:49.998Z,13.20
2018-11-12T18:32:19.315Z,13.20
2018-11-12T18:48:49.498Z,13.30
2018-11-12T18:51:30.158Z,13.20
2018-11-12T18:54:15.044Z,13.10
2018-11-12T19:01:38.236Z,13.10
2018-11-12T19:04:30.643Z,13.00
2018-11-12T19:14:33.862Z,13.00
2018-11-12T19:17:22.645Z,13.00
2018-11-12T19:20:07.563Z,13.00
2018-11-12T19:32:30.366Z,12.80
2018-11-12T19:35:01.980Z,12.80
2018-11-12T19:37:33.400Z,12.70
2018-11-12T19:40:05.340Z,12.80
2018-11-12T19:42:36.595Z,12.70
2018-11-12T19:45:10.933Z,12.70
2018-11-12T19:47:42.578Z,12.70
2018-11-12T19:50:16.596Z,12.80
2018-11-12T19:52:49.697Z,13.00
2018-11-12T19:55:21.331Z,13.00
2018-11-12T19:57:52.818Z,13.10
2018-11-12T20:00:26.255Z,13.10
2018-11-12T20:02:58.871Z,13.20
2018-11-12T20:05:30.161Z,13.10
2018-11-12T20:08:01.267Z,13.00
2018-11-12T20:10:32.210Z,12.90
2018-11-12T20:13:03.270Z,12.90
2018-11-12T20:15:34.401Z,12.90
2018-11-12T20:18:05.398Z,12.90
2018-11-12T20:20:37.108Z,12.80
2018-11-12T20:23:10.055Z,12.80
2018-11-12T20:25:42.416Z,12.70
2018-11-12T20:28:14.686Z,12.70
2018-11-12T20:30:46.522Z,12.60
2018-11-12T20:33:18.193Z,12.60
2018-11-12T20:35:49.812Z,12.60
2018-11-12T20:38:21.203Z,12.60
2018-11-12T20:40:53.088Z,12.60
2018-11-12T20:43:25.102Z,12.60
2018-11-12T20:45:57.063Z,12.50
2018-11-12T20:48:29.070Z,12.50
2018-11-12T20:51:00.805Z,12.60
2018-11-12T20:53:31.974Z,12.60
2018-11-12T20:56:03.276Z,12.60
2018-11-12T20:58:34.546Z,12.70
2018-11-12T21:01:05.906Z,12.70
2018-11-12T21:03:37.426Z,12.60
2018-11-12T21:06:09.407Z,12.60
2018-11-12T21:08:42.839Z,12.60
2018-11-12T21:11:15.832Z,12.50
2018-11-12T21:13:48.508Z,12.50
2018-11-12T21:16:20.317Z,12.40
2018-11-12T21:18:51.868Z,12.50
2018-11-12T21:21:22.985Z,12.40
2018-11-12T21:23:55.359Z,12.40
2018-11-12T21:26:26.823Z,12.40
2018-11-12T21:28:58.445Z,12.40
2018-11-12T21:31:29.633Z,12.30
2018-11-12T21:34:01.578Z,12.30
2018-11-12T21:36:33.125Z,12.30
2018-11-12T21:39:05.620Z,12.20
2018-11-12T21:41:36.843Z,12.30
2018-11-12T21:44:08.751Z,12.30
2018-11-12T21:46:39.809Z,12.20
2018-11-12T21:49:11.183Z,12.20
2018-11-12T21:51:42.329Z,12.20
2018-11-12T21:54:13.569Z,12.20
2018-11-12T21:56:44.755Z,12.20
2018-11-12T21:59:16.382Z,12.10
2018-11-12T22:01:47.772Z,12.10
2018-11-12T22:04:19.825Z,12.10
2018-11-12T22:06:52.034Z,12.10
2018-11-12T22:09:23.625Z,12.20
2018-11-12T22:11:54.941Z,12.20
2018-11-12T22:14:26.035Z,12.20
2018-11-12T22:16:57.003Z,12.20
2018-11-12T22:19:28.051Z,12.10
2018-11-12T22:21:58.992Z,12.10
2018-11-12T22:24:29.916Z,12.10
2018-11-12T22:27:00.945Z,12.10
2018-11-12T22:29:32.370Z,12.10
2018-11-12T22:32:03.432Z,12.00
2018-11-12T22:34:34.345Z,12.00
2018-11-12T22:37:05.328Z,11.90
2018-11-12T22:39:36.695Z,11.90
2018-11-12T22:42:08.162Z,11.90
2018-11-12T22:44:39.277Z,12.00
2018-11-12T22:47:10.397Z,12.00
2018-11-12T22:49:41.756Z,12.00
2018-11-12T22:52:12.781Z,12.00
2018-11-12T22:54:43.768Z,12.00
2018-11-12T22:57:14.813Z,12.00
2018-11-12T22:59:45.958Z,11.90
2018-11-12T23:02:17.408Z,11.90
2018-11-12T23:04:48.385Z,11.90
2018-11-12T23:07:19.460Z,11.90
2018-11-12T23:09:50.609Z,11.80
2018-11-12T23:12:21.812Z,11.80
2018-11-12T23:14:52.922Z,11.80
2018-11-12T23:17:24.346Z,11.80
2018-11-12T23:19:55.291Z,11.80
2018-11-12T23:22:26.265Z,11.80
2018-11-12T23:24:57.204Z,11.90
2018-11-12T23:27:28.311Z,11.80
2018-11-12T23:29:59.573Z,11.80
2018-11-12T23:32:30.646Z,11.80
2018-11-12T23:35:01.482Z,11.80
2018-11-12T23:37:32.390Z,11.90
2018-11-12T23:40:03.763Z,11.90
2018-11-12T23:42:34.605Z,11.90
2018-11-12T23:45:06.022Z,11.90
2018-11-12T23:47:37.432Z,11.90
2018-11-12T23:50:13.228Z,11.90
2018-11-12T23:52:44.821Z,11.90
2018-11-12T23:55:15.901Z,11.80
2018-11-12T23:57:47.447Z,11.80
